OTBD/DOH METAR and TAF weather

Enter ICAO airport designator
Station Type Date Time Source
OTBD METAR 2022/12/04 04:00 UTC NOAA

OTBD 040400Z 31007KT 9000 NSC 23/20 Q1017 NOSIG


Station Type Date Time Source
OTBD Decoded METAR 2022/12/04 04:00 UTC NOAA

Doha International Airport, Qatar (OTBD) 25-15N 051-34E 10M
Dec 03, 2022 - 11:00 PM EST / 2022.12.04 0400 UTC
Wind: from the NW (310 degrees) at 8 MPH (7 KT):0
Visibility: 5 mile(s):0
Temperature: 73 F (23 C)
Dew Point: 68 F (20 C)
Relative Humidity: 83%
Pressure (altimeter): 30.03 in. Hg (1017 hPa)
ob: OTBD 040400Z 31007KT 9000 NSC 23/20 Q1017 NOSIG
cycle: 4

Station Type Date Time Source
OTBD TAF 2022/12/03 18:09 UTC NOAA

TAF OTBD 031704Z 0318/0424 34008KT CAVOK PROB30 0407/0410 03008KT
TEMPO 0410/0420 09008KT 8000 NSC PROB30
TEMPO 0420/0424 20004KT

Example: see airport list